LiveATC.Net - Listen to live air traffic control over the Internet!

Airport/ARTCC Code
Frequency Search
(e.g., 124.400, 128.75)
Site-wide search
 


Browse Feeds
Top 50 Feeds
HF Oceanic Feeds
Coverage Map
Bad Weather Areas

LiveATC FAQ
Offer LiveATC feed
Contact LiveATC.net
Press Inquiries

LiveATC on iPhone
LiveATC on Android

LiveATC Mobile
(Mobile browser)

ATC Audio Archives
Interesting Recordings

LiveATC Forums

Home Page
About LiveATC.net


Terms of Use
Privacy Policy

AIRMETs/SIGMETs

FAA Airport Status
NAS Status
Arrival Demand


Server Software By:
Icecast.org
Liquidsoap


Current Potentially Bad Weather Airports
(updated every 30 minutes - sorted alphabetically by ICAO code)



This page lists LiveATC.net airport areas that may be interesting to listen to because of challenging flying (weather) conditions. Challenging weather conditions include low ceilings, limited visibility, high or gusty winds, or thunderstorms.

Updated: Thu Feb 2 00:40:01 UTC 2023
Click on airport name to go to that airport area's feeds.

CYEG Approach Edmonton International Airport (Edmonton, CA-AB)
WX MAP UNAVAILABLENearest METAR:
CYEG 020000Z 35006KT 6SM -SN SCT047 BKN085 M18/M21 A3023 RMK SC4AC3 /S01/ SLP302
CYQI Moncton Center Low/High Yarmouth Airport (Yarmouth, CA-NS)
WX MAP UNAVAILABLENearest METAR:
CYQI 020000Z 03008KT 10SM -SN BKN028 OVC120 M08/M12 A3019 RMK SC6AC2 SLP227
CYQR Gnd/Twr/Center Regina International Airport (Regina, CA-SK)
WX MAP UNAVAILABLENearest METAR:
CYQR 020000Z 35017G24KT 1 1/2SM -SN DRSN OVC015 M15/M18 A3000 RMK SC8 PRESRR SLP219
CYTS ATIS Timmins/Victor M. Power Airport (Timmins, CA-ON)
WX MAP UNAVAILABLENearest METAR:
CYTS 020000Z VRB02KT 10SM -SN SCT013 BKN030 OVC045 M14/M16 A2990 RMK SC4SC1SC3 SLP157
CYVO Gnd/RDO/Center Val-D'Or Airport (Val-D'Or, CA-QC)
WX MAP UNAVAILABLENearest METAR:
CYVO 020000Z 21005KT 200V260 12SM -SN FEW018 BKN036 BKN065 M11/M13 A2992 RMK SF2SC3SC2 SLP167
ENHD Tower Haugesund Karmoy Airport (Haugesund, Norway)
WX MAP UNAVAILABLENearest METAR:
ENHD 020020Z AUTO 34008KT 6000 -RA VV015 04/00 Q1008
ESMQ Tower Kalmar Airport (Kalmar, Sweden)
WX MAP UNAVAILABLENearest METAR:
ESMQ 020020Z AUTO 01008KT 340V040 9999 OVC003/// 02/01 Q0998
KBFM Tower Mobile Downtown Airport (Mobile, US-AL)
kbfmNearest METAR:
KBFM 012353Z 01006KT 10SM OVC008 16/12 A3021 RMK AO2 SLP230 T01560117 10167 20144 53007
KBNA Gnd/Twr Nashville International Airport (Nashville, US-TN)
kbnaNearest METAR:
KBNA 012353Z 01005KT 6SM BR OVC008 00/M02 A3033 RMK AO2 SLP274 I6000 T00001022 10000 21006 50005
KBTR/KHZR/L38 Del/Gnd/Twr/App/CTAF Baton Rouge Metropolitan Airport - Ryan Field (Baton Rouge, US-LA)
khzrNearest METAR:
KHZR 020015Z AUTO 10SM -DZ OVC005 05/05 A3023 RMK AO2 T00500045
KBTR/KHZR/L38 Del/Gnd/Twr/App/CTAF Baton Rouge Metropolitan Airport - Ryan Field (Baton Rouge, US-LA)
kbtrNearest METAR:
KBTR 012353Z 36006KT 3SM BR OVC005 09/08 A3020 RMK AO2 RAE11B28E42 SLP225 P0001 60002 T00890078 10106 20078 53006
KCTJ/KLGC CTAF LaGrange-Callaway Airport (LaGrange, US-GA)
kctjNearest METAR:
KCTJ 020015Z AUTO 00000KT 10SM OVC007 09/08 A3026 RMK AO2 T00860078
KCHS Gnd/Twr/App Charleston Air Force Base/International Airport (Charleston, US-SC)
kchsNearest METAR:
KCHS 020007Z 09009KT 10SM OVC005 16/14 A3020 RMK AO2 T01560139
KCRP App/Dep Corpus Christi International Airport (Corpus Christi, US-TX)
kcrpNearest METAR:
KCRP 012351Z 36014KT 5SM -DZ BR FEW003 BKN005 OVC008 04/03 A3022 RMK AO2 SLP234 P0000 60000 T00390028 10044 20028 53001
KDAL ATIS Dallas Love Field Airport (Dallas, US-TX)
kdalNearest METAR:
KDAL 012353Z 33008KT 2SM -FZRA BR OVC008 M02/M03 A3035 RMK AO2 SLP282 P0001 60002 I1008 I6011 T10171028 11011 21022 50015 $
KDWH Del/ Gnd/Twr David Wayne Hooks Memorial Airport (Houston, US-TX)
kdwhNearest METAR:
KDWH 020018Z 34006KT 4SM BR OVC005 03/02 A3024 RMK AO2 CIG 004V008 T00330022
KEFD Tower Ellington Airport (Houston, US-TX)
kefdNearest METAR:
KEFD 012354Z 32010KT 3SM BR OVC005 05/04 A3021
KFWS Ground/Tower Fort Worth Spinks Airport (Fort Worth, US-TX)
kfwsNearest METAR:
KFWS 012355Z 36006KT 3SM -SN BKN005 OVC019 M01/M02 A3033
KGKT CTAF Gatlinburg-Pigeon Forge Airport (Sevierville, US-TN)
kgktNearest METAR:
KGKT 020015Z AUTO 00000KT 9SM OVC005 05/05 A3024 RMK A01
KGMU Ground/Tower Greenville Downtown Airport (Greenville, US-SC)
WX MAP UNAVAILABLENearest METAR:
KGMU 012353Z 08009KT 10SM OVC006 09/07 A3022 RMK AO2 SLP234 T00890067 10183 20089 52028
KGSP App/Dep (East) Greenville Spartanburg International Airport (Greer, US-SC)
WX MAP UNAVAILABLENearest METAR:
KGSP 012353Z 06006KT 10SM OVC005 08/06 A3022 RMK AO2 SLP233 T00780061 10161 20078 51024
KGYH Tower Donaldson Field Airport (Greenville, US-SC)
WX MAP UNAVAILABLENearest METAR:
KGYH 012347Z 08012KT 10SM OVC006 08/07 A3021
KGPT Gnd/Twr/App Gulfport-Biloxi International Airport (Gulfport, US-MS)
kgptNearest METAR:
KGPT 020007Z 02006KT 10SM OVC009 16/13 A3018 RMK AO2 T01610128
KGTU Gnd/Twr Georgetown Municipal Airport (Georgetown, US-TX)
kgtuNearest METAR:
KGTU 012356Z 34012KT BR OVC008 M01/M02 A3028 RMK AO2 SLP263 60009 T10111017 11006 21017 58005 $
KHDC De/Gnd/Twr/App/ZHU Hammond Northshore Regional Airport (Hammond, US-LA)
khdcNearest METAR:
KHDC 020015Z AUTO 06003KT 10SM OVC008 11/10 A3019 RMK AO2 T01100096
KHKY ASOS Hickory Regional Airport (Hickory, US-NC)
WX MAP UNAVAILABLENearest METAR:
KHKY 012353Z AUTO VRB03KT 10SM OVC009 06/04 A3023 RMK AO2 SLP227 T00560039 10072 20056 50012
KMRN CTAF Foothills Regional Airport (Morganton, US-NC)
WX MAP UNAVAILABLENearest METAR:
KMRN 020015Z AUTO 00000KT OVC007 06/06 A3026 RMK AO2 T00620055 PWINO
KHOU Gnd/Twr/App William P Hobby Airport (Houston, US-TX)
khouNearest METAR:
KHOU 012353Z 33009KT 2SM BR OVC005 05/04 A3022 RMK AO2 SLP238 T00500039 10061 20050 53008
KHSV Gnd/Twr/App/Dep Huntsville International Airport-Carl T Jones Field (Huntsville, US-AL)
khsvNearest METAR:
KHSV 020022Z COR 34007KT 6SM -RA BR OVC008 02/01 A3030 RMK AO2 RAB18 P0000 T00220006
KHYI Gnd/Twr/Misc San Marcos Municipal Airport (Austin, US-TX)
khyiNearest METAR:
KHYI 020003Z 36008KT 3SM BR OVC007 01/01 A3027 RMK AO2 CIG 006V011 $
KIAH Tower George Bush Intercontinental/Houston Airport (Houston, US-TX)
kiahNearest METAR:
KIAH 012353Z 34007KT 1 1/2SM -RA BR OVC005 04/03 A3023 RMK AO2 SFC VIS 2 1/2 RAB37 SLP239 CIG 004V007 P0000 60000 T00390033 10044 20039 53010
KJAN Gnd/Twr/App/Dep Jackson-Medgar Wiley Evers International Airport (Jackson, US-MS)
kjanNearest METAR:
KJAN 012354Z 36007KT 10SM OVC005 05/03 A3025 RMK AO2 RAE23 CIG 004V009 SLP246 P0002 60006 T00500033 10050 20028 51007
KJWY/2TS6 CTAF/Unicom Mid-Way Regional Airport (Midlothian/Waxahachie, US-TX)
kjwyNearest METAR:
KJWY 020015Z AUTO 00000KT 4SM -SN OVC007 M01/M02 A3033 RMK AO2 T10151018
KLBX CTAF Texas Gulf Coast Regional Airport (Angleton/Lake Jackson, US-TX)
klbxNearest METAR:
KLBX 020015Z AUTO 35005KT 3SM BR OVC004 05/04 A3021 RMK AO2 T00500044
KLFK/KOCH CTAF Angelina County Airport (Lufkin, US-TX)
kochNearest METAR:
KOCH 012356Z AUTO 35007KT 3SM BR OVC006 02/02 A3026 RMK AO2 CIG 004V010 SLP253 P0003 60007 T00220022 10028 20022 53002 PWINO FZRANO $
KLFK/KOCH CTAF Angelina County Airport (Lufkin, US-TX)
klfkNearest METAR:
KLFK 020009Z AUTO 36004KT 4SM -RA BR OVC006 03/03 A3025 RMK AO2 CIG 004V012 P0001 T00330028
KLGD CTAF La Grande/Union County Airport (La Grande, US-OR)
klgdNearest METAR:
KLGD 012356Z AUTO 18025G30KT 10SM CLR M01/M11 A3023 RMK AO2 PK WND 19032/2320 SLP268 T10111106 10000 21044 56002 FZRANO
KLVJ CTAF Pearland Regional Airport (Houston, US-TX)
klvjNearest METAR:
KLVJ 020011Z AUTO 34009KT 3SM BR OVC004 06/04 A3023 RMK AO2 T00560044
KMEM Approach Memphis International Airport (Memphis, US-TN)
kmemNearest METAR:
KMEM 020020Z 03005KT 8SM OVC008 M02/M03 A3034 RMK AO2 FZDZE20 P0000 I1001 T10171028 $
KMQY Clearance Delivery Smyrna Airport (Smyrna, US-TN)
kmqyNearest METAR:
KMQY 012356Z 01005KT 7SM OVC008 00/M01 A3034 RMK AO2 SLP287 6//// T00001006 10000 21006 50005
KMSY App/Dep Louis Armstrong New Orleans International Airport (New Orleans, US-LA)
kmsyNearest METAR:
KMSY 012353Z 06005KT 10SM OVC009 14/12 A3017 RMK AO2 SLP220 T01390117 10139 20111 55000
KOAJ Gnd/Twr Albert J Ellis Airport (Jacksonville, US-NC)
koajNearest METAR:
KOAJ 012356Z 04008KT 10SM OVC007 06/05 A3029 RMK AO2 SLP262 T00610050 10083 20061 53017
KPRX AWOS Cox Field Airport (Paris, US-TX)
kprxNearest METAR:
KPRX 020004Z AUTO 32008KT 4SM UP BR OVC005 00/00 A3036 RMK AO2 P0000 FZRANO
KRBD Ground/Tower Dallas Executive Airport (Dallas, US-TX)
krbdNearest METAR:
KRBD 020021Z 36008KT 6SM UP BR OVC006 M02/M03 A3030 RMK AO2 UPB15FZRAE15 P0000 I1002 T10171028
KSJT Tower/Approach San Angelo Regional Airport/Mathis Field (San Angelo, US-TX)
ksjtNearest METAR:
KSJT 020023Z 09006KT 9SM OVC009 M01/M03 A3022 RMK AO2 CIG 006V011 T10111028
KSOP AWOS Moore County Airport (Pinehurst/Southern Pines, US-NC)
ksopNearest METAR:
KSOP 012356Z AUTO 06005KT 10SM OVC009 06/05 A3028 RMK AO2 SLP259 60000 T00610050 10072 20061 53007 TSNO
KTYR App/Dep Tyler Pounds Regional Airport (Tyler, US-TX)
ktyrNearest METAR:
KTYR 012353Z 32007KT 3SM -RA BR OVC003 01/M01 A3031 RMK AO2 PRESRR SLP266 P0007 60007 I6004 T00061006 10006 21006 53015
KWDR/KCVC/KCNI CTAF Cherokee County Airport (Canton, US-GA)
kcniNearest METAR:
KCNI 020015Z AUTO 31005KT 10SM OVC007 06/04 A3023 RMK AO2 P0001 T00570044
MMMY Tower/Approach General Mariano Escobedo International Airport (Monterrey, Mexico)
WX MAP UNAVAILABLENearest METAR:
MMMY 012340Z 11006KT 1SM BR -DZ VV003 06/05 A3016 RMK SLP/// 5//// 9// 8//// -DZB30
PAFA Gnd/Twr/App Fairbanks International Airport (Fairbanks, US-AK)
pafaNearest METAR:
PAFA 012353Z 05005KT 7SM -SN BKN039 OVC055 M12/M15 A2979 RMK AO2 SLP102 P0000 60002 T11171150 11111 21133 58019
PAHO AWOS/AFIS Homer Airport (Homer, US-AK)
WX MAP UNAVAILABLENearest METAR:
PAHO 020029Z 08003KT 7SM -SN SCT005 BKN018 OVC050 01/M01 A2958 RMK AO2 P0000 T00111006
PALH Tower Lake Hood Seaplane Base (Anchorage, US-AK)
palhNearest METAR:
PALH 012353Z AUTO 00000KT 1SM -SN BR FEW025 BKN040 OVC055 M03/M03 A2961 RMK AO2 SLP028 P0000 60000 T10281033 11028 21039 58013 TSNO
Anchorage Area CTAF 122.9 Merrill Field Airport (Anchorage, US-AK)
pamrNearest METAR:
PAMR 012353Z 34003KT 2SM -SN BR BKN005 OVC029 M02/M04 A2960 RMK AO2 SLP025 P0001 60004 T10221039 11022 21028 57012
PAED Tower Elmendorf Air Force Base (Anchorage, US-AK)
paedNearest METAR:
PAED 012355Z COR 00000KT 2 1/2SM -SN BR FEW005 SCT015 OVC055 M03/M03 A2958 RMK AO2A SLP015 P0001 60002 4/018 T10261026 11023 21040 57012 COR 2357
PANC Del/Gnd/Twr/App Ted Stevens Anchorage International Airport (Anchorage, US-AK)
pancNearest METAR:
PANC 012353Z 00000KT 1 1/2SM -SN BR BKN006 BKN020 OVC048 M03/M03 A2960 RMK AO2 SLP025 4/023 P0000 60005 T10281033 11028 21039 58012 CHINO N VISNO N $
SPQU Radar Rodriguez Ballon International Airport (Arequipa, Peru)
WX MAP UNAVAILABLENearest METAR:
SPQU 020000Z 28008KT 3000 -DZ BR SCT002 OVC009 12/12 Q1025 RMK PP012
UNNT Gnd/Twr/App/Radar/Misc Tolmachevo Airport (Novosibirsk, Russia)
WX MAP UNAVAILABLENearest METAR:
UNNT 020000Z 28001MPS 0050 R25/1700D FZFG OVC001 M29/M32 Q1031 R25/820250 R34/////// NOSIG RMK QBB040 QFE763/1017